Time;durP1;ratioP1;P1;durP2;ratioP2;P2;SDS_P1;SDS_P2;PMS_P1;PMS_P2;Temp;Humidity;BMP_temperature;BMP_pressure;BME280_temperature;BME280_humidity;BME280_pressure;Samples;Min_cycle;Max_cycle;Signal;HPM_P1;HPM_P2
2021/12/04 00:00:10;;;;;;;5.93;2.80;;;;;;;-145.69;100.00;71887.94;5113442;28;20198;-77
2021/12/04 00:02:37;;;;;;;5.33;2.97;;;;;;;-145.69;100.00;71881.97;5113530;28;20197;-77
2021/12/04 00:05:05;;;;;;;5.23;3.00;;;;;;;-145.69;100.00;71876.00;5113550;28;20205;-77
2021/12/04 00:07:34;;;;;;;4.57;2.60;;;;;;;-145.69;100.00;71881.97;5113378;28;20255;-77
2021/12/04 00:10:03;;;;;;;4.83;2.57;;;;;;;-145.69;100.00;71874.03;5113575;28;20226;-77
2021/12/04 00:12:31;;;;;;;5.37;3.20;;;;;;;-145.69;100.00;71868.06;5112841;28;20225;-76
2021/12/04 00:14:58;;;;;;;5.97;3.13;;;;;;;-145.69;100.00;71872.03;5113507;28;20198;-76
2021/12/04 00:17:26;;;;;;;7.70;3.20;;;;;;;-145.69;100.00;71864.06;5113324;28;20236;-76
2021/12/04 00:19:55;;;;;;;6.20;2.83;;;;;;;-145.69;100.00;71844.16;5113140;28;20233;-77
2021/12/04 00:22:22;;;;;;;7.03;3.40;;;;;;;-145.69;100.00;71848.16;5113380;28;20262;-76
2021/12/04 00:24:49;;;;;;;5.57;2.67;;;;;;;-145.69;100.00;71834.22;5113401;28;20205;-76
2021/12/04 00:27:18;;;;;;;8.40;2.90;;;;;;;-145.69;100.00;71836.22;5116403;28;20197;-77
2021/12/04 00:29:44;;;;;;;7.27;3.03;;;;;;;-145.69;100.00;71820.28;5117584;28;20201;-77
2021/12/04 00:32:14;;;;;;;4.83;2.90;;;;;;;-145.69;100.00;71810.34;5117400;28;20205;-77
2021/12/04 00:34:49;;;;;;;5.20;2.87;;;;;;;-145.69;100.00;71802.38;5117115;28;20735;-76
2021/12/04 00:37:48;;;;;;;7.13;2.50;;;;;;;-145.69;100.00;71806.34;5117111;28;20225;-77
2021/12/04 00:51:16;;;;;;;3.00;1.90;;;;;;;-145.69;100.00;71776.50;5117008;28;20250;-77
2021/12/04 00:53:42;;;;;;;4.43;2.13;;;;;;;-145.69;100.00;71788.44;5117247;28;20545;-77
2021/12/04 00:56:09;;;;;;;3.80;2.07;;;;;;;-145.69;100.00;71790.44;5116728;28;20565;-76
2021/12/04 00:58:38;;;;;;;3.47;1.87;;;;;;;-145.69;100.00;71788.44;5116838;28;20225;-76
2021/12/04 01:01:04;;;;;;;4.00;1.93;;;;;;;-145.69;100.00;71792.44;5116416;28;20204;-76
2021/12/04 01:03:35;;;;;;;3.23;2.17;;;;;;;-145.69;100.00;71772.53;5116695;28;20209;-76
2021/12/04 01:06:01;;;;;;;3.53;2.07;;;;;;;-145.69;100.00;71776.50;5116918;28;20210;-77
2021/12/04 01:08:29;;;;;;;2.40;1.63;;;;;;;-145.69;100.00;71782.47;5119183;27;20193;-76
2021/12/04 01:10:57;;;;;;;2.83;1.67;;;;;;;-145.69;100.00;71784.47;5137226;27;20200;-77
2021/12/04 01:13:25;;;;;;;4.57;1.50;;;;;;;-145.69;100.00;71774.50;5137115;27;20197;-76
2021/12/04 01:15:52;;;;;;;4.27;1.73;;;;;;;-145.69;100.00;71776.50;5136963;27;20197;-77
2021/12/04 01:18:18;;;;;;;2.97;1.73;;;;;;;-145.69;100.00;71786.47;5131373;27;20705;-77
2021/12/04 01:20:45;;;;;;;5.10;1.77;;;;;;;-145.69;100.00;71784.47;5134616;27;20228;-77
2021/12/04 01:23:12;;;;;;;5.20;2.10;;;;;;;-145.69;100.00;71774.50;5135784;27;20204;-77
2021/12/04 01:25:41;;;;;;;3.53;1.80;;;;;;;-145.69;100.00;71774.50;5135482;27;20228;-77
2021/12/04 01:28:08;;;;;;;2.20;1.53;;;;;;;-145.69;100.00;71772.53;5116378;28;20205;-77
2021/12/04 01:30:34;;;;;;;3.13;1.60;;;;;;;-145.69;100.00;71764.56;5114937;28;20197;-76
2021/12/04 01:33:01;;;;;;;3.37;2.10;;;;;;;-145.69;100.00;71766.56;5114968;28;20205;-77
2021/12/04 01:35:31;;;;;;;4.50;1.97;;;;;;;-145.69;100.00;71770.53;5114927;28;20198;-77
2021/12/04 01:37:57;;;;;;;3.57;2.20;;;;;;;-145.69;100.00;71772.53;5114504;28;20229;-77
2021/12/04 01:40:26;;;;;;;4.13;2.40;;;;;;;-145.69;100.00;71768.53;5115050;28;20289;-77
2021/12/04 01:42:57;;;;;;;3.80;2.03;;;;;;;-145.69;100.00;71770.53;5115054;28;20292;-77
2021/12/04 01:45:23;;;;;;;7.57;2.20;;;;;;;-145.69;100.00;71776.50;5114774;28;20269;-77
2021/12/04 01:47:50;;;;;;;3.83;2.30;;;;;;;-145.69;100.00;71774.50;5114670;28;20205;-76
2021/12/04 01:50:19;;;;;;;3.70;2.20;;;;;;;-145.69;100.00;71784.47;5114754;28;20560;-76
2021/12/04 01:52:45;;;;;;;4.30;2.40;;;;;;;-145.69;100.00;71776.50;5114769;28;20201;-76
2021/12/04 01:55:12;;;;;;;5.80;2.40;;;;;;;-145.69;100.00;71788.44;5123756;28;20283;-76
2021/12/04 01:57:38;;;;;;;5.23;2.73;;;;;;;-145.69;100.00;71786.47;5135353;28;20228;-76
2021/12/04 02:00:09;;;;;;;5.73;2.87;;;;;;;-145.69;100.00;71782.47;5135089;27;20327;-76
2021/12/04 02:02:36;;;;;;;5.33;2.83;;;;;;;-145.69;100.00;71776.50;5135198;28;20220;-76
2021/12/04 02:05:03;;;;;;;4.60;2.50;;;;;;;-145.69;100.00;71764.56;5135269;28;20201;-76
2021/12/04 02:07:30;;;;;;;4.00;2.60;;;;;;;-145.69;100.00;71776.50;5134911;27;20738;-77
2021/12/04 02:09:57;;;;;;;4.20;2.20;;;;;;;-145.69;100.00;71776.50;5135187;27;20246;-76
2021/12/04 02:12:23;;;;;;;4.60;2.43;;;;;;;-145.69;100.00;71764.56;5135000;27;20258;-76
2021/12/04 02:14:53;;;;;;;3.67;2.40;;;;;;;-145.69;100.00;71754.63;5134777;27;20750;-76
2021/12/04 02:17:21;;;;;;;3.77;2.40;;;;;;;-145.69;100.00;71762.56;5135029;28;20225;-76
2021/12/04 02:19:50;;;;;;;3.37;2.40;;;;;;;-145.69;100.00;71760.59;5098286;27;1033780;-76
2021/12/04 02:22:18;;;;;;;3.93;2.50;;;;;;;-145.69;100.00;71756.59;5135930;27;20209;-76
2021/12/04 02:24:45;;;;;;;3.87;2.30;;;;;;;-145.69;100.00;71750.63;5135991;27;20201;-76
2021/12/04 02:27:13;;;;;;;2.77;2.13;;;;;;;-145.69;100.00;71754.63;5135649;27;20563;-76
2021/12/04 02:29:46;;;;;;;2.97;1.90;;;;;;;-145.69;100.00;71748.66;5136102;27;20203;-76
2021/12/04 02:32:13;;;;;;;3.63;2.40;;;;;;;-145.69;100.00;71752.63;5135752;27;20551;-76
2021/12/04 02:34:40;;;;;;;3.27;2.30;;;;;;;-145.69;100.00;71750.63;5135753;27;20205;-76
2021/12/04 02:37:07;;;;;;;3.50;1.90;;;;;;;-145.69;100.00;71748.66;5135499;27;20197;-76
2021/12/04 02:39:41;;;;;;;2.63;1.73;;;;;;;-145.69;100.00;71732.72;5135656;27;20228;-76
2021/12/04 02:42:21;;;;;;;2.17;1.37;;;;;;;-145.69;100.00;71728.75;5135683;27;20253;-77
2021/12/04 02:44:48;;;;;;;2.10;1.60;;;;;;;-145.69;100.00;71722.78;5135382;27;20205;-77
2021/12/04 02:47:15;;;;;;;2.20;1.07;;;;;;;-145.69;100.00;71702.88;5135413;27;20655;-77
2021/12/04 02:49:41;;;;;;;1.80;1.20;;;;;;;-145.69;100.00;71686.97;5134638;27;20200;-77
2021/12/04 02:52:10;;;;;;;1.67;1.20;;;;;;;-145.69;100.00;71690.94;5135159;27;20682;-77
2021/12/04 02:54:38;;;;;;;2.63;1.40;;;;;;;-145.69;100.00;71680.97;5135415;27;20208;-77
2021/12/04 02:57:07;;;;;;;1.43;1.10;;;;;;;-145.69;100.00;71671.03;5135281;27;20201;-76
2021/12/04 02:59:35;;;;;;;4.93;1.20;;;;;;;-145.69;100.00;71669.03;5134805;27;20220;-76
2021/12/04 03:02:01;;;;;;;1.00;0.90;;;;;;;-145.69;100.00;71661.09;5134908;27;20204;-76
2021/12/04 03:04:32;;;;;;;1.10;0.97;;;;;;;-145.69;100.00;71651.13;5135051;27;20204;-77
2021/12/04 03:07:01;;;;;;;0.80;0.80;;;;;;;-145.69;100.00;71641.19;5134799;27;20197;-77
2021/12/04 03:09:27;;;;;;;1.07;0.80;;;;;;;-145.69;100.00;71641.19;5135080;27;20204;-76
2021/12/04 03:11:55;;;;;;;0.90;0.80;;;;;;;-145.69;100.00;71641.19;5134967;27;20197;-77
2021/12/04 03:14:27;;;;;;;0.70;0.70;;;;;;;-145.69;100.00;71617.31;5135008;27;20205;-76
2021/12/04 03:16:53;;;;;;;0.50;0.50;;;;;;;-145.69;100.00;71617.31;5135026;27;20581;-76
2021/12/04 03:19:20;;;;;;;0.87;0.70;;;;;;;-145.69;100.00;71603.38;5134570;27;20234;-76
2021/12/04 03:21:54;;;;;;;0.70;0.70;;;;;;;-145.69;100.00;71607.34;5134371;27;20240;-76
2021/12/04 03:24:24;;;;;;;0.50;0.50;;;;;;;-145.69;100.00;71599.41;5135046;27;20200;-76
2021/12/04 03:26:56;;;;;;;0.87;0.60;;;;;;;-145.69;100.00;71603.38;5134819;27;20201;-75
2021/12/04 03:29:27;;;;;;;1.70;0.63;;;;;;;-145.69;100.00;71599.41;5134757;27;20228;-75
2021/12/04 03:32:24;;;;;;;0.63;0.60;;;;;;;-145.69;100.00;71601.38;5134554;27;20201;-76
2021/12/04 03:40:55;;;;;;;0.60;0.60;;;;;;;-145.69;100.00;71569.53;5091246;28;20571;-76
2021/12/04 03:43:25;;;;;;;0.47;0.47;;;;;;;-145.69;100.00;71561.59;5131048;27;20197;-76
2021/12/04 03:45:58;;;;;;;0.43;0.43;;;;;;;-145.69;100.00;71549.66;5134371;27;20227;-75
2021/12/04 03:48:50;;;;;;;0.60;0.60;;;;;;;-145.69;100.00;71549.66;5134179;27;20232;-75
2021/12/04 03:51:21;;;;;;;0.60;0.40;;;;;;;-145.69;100.00;71503.88;5134039;27;20619;-76
2021/12/04 03:53:48;;;;;;;0.70;0.50;;;;;;;-145.69;100.00;71482.00;5134269;27;20197;-75
2021/12/04 03:56:19;;;;;;;1.80;0.30;;;;;;;-145.69;100.00;71470.06;5134177;27;20214;-75
2021/12/04 03:58:47;;;;;;;0.30;0.30;;;;;;;-145.69;100.00;71485.97;5134058;27;20556;-76
2021/12/04 04:01:13;;;;;;;0.47;0.47;;;;;;;-145.69;100.00;71489.94;5134202;27;20204;-76
2021/12/04 04:03:49;;;;;;;0.50;0.50;;;;;;;-145.69;100.00;71491.94;5126707;27;20205;-75
2021/12/04 04:06:15;;;;;;;1.20;0.50;;;;;;;-145.69;100.00;71470.06;5113370;28;20587;-75
2021/12/04 04:08:46;;;;;;;0.40;0.40;;;;;;;-145.69;100.00;71478.00;5113444;28;20664;-75
2021/12/04 04:11:14;;;;;;;0.40;0.40;;;;;;;-145.69;100.00;71485.97;5113623;28;20201;-75
2021/12/04 04:13:43;;;;;;;0.40;0.40;;;;;;;-145.69;100.00;71476.03;5113603;28;20204;-75
2021/12/04 04:16:12;;;;;;;0.40;0.40;;;;;;;-145.69;100.00;71464.09;5113393;28;20197;-75
2021/12/04 04:18:38;;;;;;;0.50;0.50;;;;;;;-145.69;100.00;71468.06;5113368;28;20306;-75
2021/12/04 04:21:05;;;;;;;0.47;0.47;;;;;;;-145.69;100.00;71464.09;5113070;28;20229;-75
2021/12/04 04:23:32;;;;;;;0.50;0.50;;;;;;;-145.69;100.00;71442.19;5113216;28;20564;-75
2021/12/04 04:25:59;;;;;;;0.47;0.47;;;;;;;-145.69;100.00;71448.16;5113110;28;20201;-75
2021/12/04 04:28:26;;;;;;;0.40;0.40;;;;;;;-145.69;100.00;71436.22;5113438;28;20200;-75
2021/12/04 04:30:57;;;;;;;0.50;0.40;;;;;;;-145.69;100.00;71428.25;5113320;28;20197;-76
2021/12/04 04:33:25;;;;;;;0.40;0.40;;;;;;;-145.69;100.00;71438.22;5113417;28;20284;-75
2021/12/04 04:36:06;;;;;;;0.40;0.40;;;;;;;-145.69;100.00;71430.25;5113180;28;20201;-75
2021/12/04 04:38:42;;;;;;;0.43;0.40;;;;;;;-145.69;100.00;71428.25;5112865;28;20588;-75
2021/12/04 04:58:17;;;;;;;0.30;0.30;;;;;;;-145.69;100.00;71366.56;5112897;28;20201;-75
2021/12/04 05:11:59;;;;;;;0.40;0.30;;;;;;;-145.69;100.00;71366.56;5112564;28;20513;-76
2021/12/04 05:14:26;;;;;;;0.40;0.40;;;;;;;-145.69;100.00;71368.56;5116802;28;20196;-76
2021/12/04 05:17:02;;;;;;;0.40;0.40;;;;;;;-145.69;100.00;71374.53;5116789;28;20212;-75
2021/12/04 05:19:38;;;;;;;0.50;0.50;;;;;;;-145.69;100.00;71374.53;5116343;28;20236;-76
2021/12/04 05:22:07;;;;;;;0.40;0.40;;;;;;;-145.69;100.00;71370.56;5116452;28;20432;-76
2021/12/04 05:24:34;;;;;;;0.30;0.30;;;;;;;-145.69;100.00;71354.63;5116585;28;20201;-76
2021/12/04 05:27:02;;;;;;;0.40;0.40;;;;;;;-145.69;100.00;71354.63;5116552;28;20235;-76
2021/12/04 05:29:29;;;;;;;0.43;0.43;;;;;;;-145.69;100.00;71358.63;5116487;28;20278;-76
2021/12/04 05:31:55;;;;;;;0.63;0.37;;;;;;;-145.69;100.00;71366.56;5116137;28;20621;-76
2021/12/04 05:34:22;;;;;;;0.60;0.50;;;;;;;-145.69;100.00;71364.59;5116303;28;20288;-76
2021/12/04 05:36:53;;;;;;;0.40;0.40;;;;;;;-145.69;100.00;71360.59;5116023;28;20198;-76
2021/12/04 05:39:22;;;;;;;1.03;0.27;;;;;;;-145.69;100.00;71362.59;5116024;28;20232;-76
2021/12/04 05:41:52;;;;;;;0.30;0.30;;;;;;;-145.69;100.00;71354.63;5116136;28;20201;-76
2021/12/04 05:44:25;;;;;;;0.40;0.40;;;;;;;-145.69;100.00;71346.69;5116171;28;20212;-76
2021/12/04 05:46:59;;;;;;;0.50;0.50;;;;;;;-145.69;100.00;71346.69;5115985;28;20288;-75
2021/12/04 05:49:28;;;;;;;0.93;0.40;;;;;;;-145.69;100.00;71330.75;5115811;28;20258;-76
2021/12/04 05:52:21;;;;;;;0.20;0.20;;;;;;;-145.69;100.00;71330.75;5115847;28;20723;-76
2021/12/04 05:55:10;;;;;;;0.40;0.40;;;;;;;-145.69;100.00;71326.78;5115939;28;20297;-76
2021/12/04 05:57:37;;;;;;;0.40;0.40;;;;;;;-145.69;100.00;71338.72;5118048;27;20200;-77
2021/12/04 06:00:07;;;;;;;0.40;0.40;;;;;;;-145.69;100.00;71342.69;5115537;28;20599;-77
2021/12/04 06:02:34;;;;;;;0.30;0.30;;;;;;;-145.69;100.00;71322.81;5115710;28;20209;-77
2021/12/04 06:05:00;;;;;;;0.40;0.40;;;;;;;-145.69;100.00;71334.75;5115729;28;20209;-77
2021/12/04 06:07:27;;;;;;;0.40;0.40;;;;;;;-145.69;100.00;71332.75;5115705;28;20198;-76
2021/12/04 06:09:55;;;;;;;0.40;0.40;;;;;;;-145.69;100.00;71324.78;5115685;28;20556;-76
2021/12/04 06:12:22;;;;;;;0.40;0.40;;;;;;;-145.69;100.00;71322.81;5115630;28;20201;-76
2021/12/04 06:14:51;;;;;;;0.30;0.30;;;;;;;-145.69;100.00;71336.72;5115541;28;20201;-76
2021/12/04 06:17:20;;;;;;;0.30;0.30;;;;;;;-145.69;100.00;71334.75;5115574;28;20197;-76
2021/12/04 06:22:40;;;;;;;0.40;0.40;;;;;;;-145.69;100.00;71322.81;5115130;28;20667;-76
2021/12/04 06:25:11;;;;;;;0.47;0.43;;;;;;;-145.69;100.00;71326.78;5114499;28;20200;-76
2021/12/04 06:27:38;;;;;;;0.30;0.30;;;;;;;-145.69;100.00;71318.81;5115290;28;20206;-76
2021/12/04 06:30:06;;;;;;;0.40;0.40;;;;;;;-145.69;100.00;71324.78;5115322;28;20197;-76
2021/12/04 06:32:35;;;;;;;0.30;0.30;;;;;;;-145.69;100.00;71300.91;5115386;28;20204;-76
2021/12/04 06:35:01;;;;;;;0.50;0.50;;;;;;;-145.69;100.00;71302.91;5115093;28;20258;-77
2021/12/04 06:37:28;;;;;;;0.40;0.40;;;;;;;-145.69;100.00;71283.00;5115240;28;20198;-76
2021/12/04 06:39:54;;;;;;;0.40;0.40;;;;;;;-145.69;100.00;71265.09;5115286;28;20274;-77
2021/12/04 06:42:23;;;;;;;0.47;0.40;;;;;;;-145.69;100.00;71275.03;5115027;28;20210;-76
2021/12/04 06:44:53;;;;;;;0.40;0.40;;;;;;;-145.69;100.00;71286.97;5115019;28;20201;-76
2021/12/04 06:47:20;;;;;;;0.37;0.33;;;;;;;-145.69;100.00;71286.97;5114952;28;20278;-76
2021/12/04 06:49:53;;;;;;;0.40;0.40;;;;;;;-145.69;100.00;71283.00;5114727;28;20208;-76
2021/12/04 06:52:25;;;;;;;0.30;0.30;;;;;;;-145.69;100.00;71281.00;5114947;28;20195;-76
2021/12/04 06:54:54;;;;;;;0.70;0.40;;;;;;;-145.69;100.00;71241.22;5114734;28;20204;-76
2021/12/04 06:57:23;;;;;;;0.60;0.40;;;;;;;-145.69;100.00;71251.16;5114742;28;20709;-76
2021/12/04 06:59:52;;;;;;;0.40;0.40;;;;;;;-145.69;100.00;71261.13;5114426;28;20228;-76
2021/12/04 07:02:20;;;;;;;1.97;0.50;;;;;;;-145.69;100.00;71239.22;5114495;28;20288;-76
2021/12/04 07:04:47;;;;;;;0.50;0.50;;;;;;;-145.69;100.00;71245.19;5114181;28;20675;-77
2021/12/04 07:07:14;;;;;;;0.40;0.40;;;;;;;-145.69;100.00;71235.25;5114659;28;20200;-76
2021/12/04 07:09:41;;;;;;;0.50;0.50;;;;;;;-145.69;100.00;71243.22;5114720;28;20205;-76
2021/12/04 07:12:08;;;;;;;1.13;0.30;;;;;;;-145.69;100.00;71235.25;5114423;28;20202;-76
2021/12/04 07:14:37;;;;;;;0.40;0.40;;;;;;;-145.69;100.00;71229.28;5114517;28;20205;-76
2021/12/04 07:17:05;;;;;;;3.37;2.43;;;;;;;-145.69;100.00;71227.28;5114277;28;20709;-76
2021/12/04 07:19:32;;;;;;;1.07;0.67;;;;;;;-145.69;100.00;71225.31;5114268;28;20294;-76
2021/12/04 07:21:59;;;;;;;0.50;0.50;;;;;;;-145.69;100.00;71221.31;5114302;28;20258;-76
2021/12/04 07:24:26;;;;;;;0.87;0.70;;;;;;;-145.69;100.00;71225.31;5114196;28;20198;-75
2021/12/04 07:26:53;;;;;;;0.33;0.33;;;;;;;-145.69;100.00;71215.34;5114194;28;20197;-75
2021/12/04 07:29:20;;;;;;;0.30;0.30;;;;;;;-145.69;100.00;71203.41;5113951;28;20205;-76
2021/12/04 07:31:48;;;;;;;0.30;0.30;;;;;;;-145.69;100.00;71185.50;5114081;28;20201;-76
2021/12/04 07:34:15;;;;;;;0.33;0.33;;;;;;;-145.69;100.00;71185.50;5114006;28;20218;-76
2021/12/04 07:36:44;;;;;;;0.40;0.40;;;;;;;-145.69;100.00;71191.47;5113549;28;20669;-76
2021/12/04 07:39:11;;;;;;;0.43;0.43;;;;;;;-145.69;100.00;71191.47;5113814;28;20225;-76
2021/12/04 07:41:42;;;;;;;0.37;0.37;;;;;;;-145.69;100.00;71167.59;5113827;28;20238;-76
2021/12/04 07:44:10;;;;;;;0.40;0.40;;;;;;;-145.69;100.00;71175.56;5113934;28;20266;-76
2021/12/04 07:46:37;;;;;;;0.40;0.30;;;;;;;-145.69;100.00;71183.50;5113563;28;20663;-76
2021/12/04 07:49:05;;;;;;;0.40;0.40;;;;;;;-145.69;100.00;71175.56;5113994;28;20205;-76
2021/12/04 07:51:34;;;;;;;0.30;0.30;;;;;;;-145.69;100.00;71173.56;5113818;28;20201;-75
2021/12/04 07:54:00;;;;;;;0.40;0.40;;;;;;;-145.69;100.00;71179.53;5113944;28;20197;-77
2021/12/04 07:56:29;;;;;;;0.40;0.40;;;;;;;-145.69;100.00;71161.63;5116110;28;20197;-76
2021/12/04 07:58:55;;;;;;;0.40;0.40;;;;;;;-145.69;100.00;71153.66;5113656;28;20197;-76
2021/12/04 08:01:23;;;;;;;0.30;0.30;;;;;;;-145.69;100.00;71161.63;5113544;28;20564;-76
2021/12/04 08:03:50;;;;;;;0.30;0.30;;;;;;;-145.69;100.00;71151.69;5113798;28;20212;-76
2021/12/04 08:06:17;;;;;;;4.53;4.13;;;;;;;-145.69;100.00;71151.69;5113470;28;20205;-77
2021/12/04 08:08:46;;;;;;;3.10;2.80;;;;;;;-145.69;100.00;71139.75;5113554;28;20208;-76
2021/12/04 08:11:13;;;;;;;1.23;1.07;;;;;;;-145.69;100.00;71135.75;5113256;28;20193;-76
2021/12/04 08:13:39;;;;;;;0.70;0.70;;;;;;;-145.69;100.00;71129.78;5113414;28;20240;-76
2021/12/04 08:16:06;;;;;;;3.33;1.00;;;;;;;-145.69;100.00;71123.81;5113430;28;20201;-76
2021/12/04 08:18:32;;;;;;;0.60;0.50;;;;;;;-145.69;100.00;71115.88;5113468;28;20258;-77
2021/12/04 08:20:59;;;;;;;0.63;0.40;;;;;;;-145.69;100.00;71111.88;5113215;28;20240;-77
2021/12/04 08:23:27;;;;;;;0.53;0.33;;;;;;;-145.69;100.00;71095.97;5113573;28;20254;-77
2021/12/04 08:25:56;;;;;;;0.70;0.70;;;;;;;-145.69;100.00;71092.00;5113312;28;20201;-77
2021/12/04 08:28:24;;;;;;;0.30;0.30;;;;;;;-145.69;100.00;71092.00;5113531;28;20659;-76
2021/12/04 08:30:51;;;;;;;0.57;0.40;;;;;;;-145.69;100.00;71088.00;5113466;28;20284;-76
2021/12/04 08:33:18;;;;;;;0.60;0.60;;;;;;;-145.69;100.00;71072.09;5113443;28;20201;-76
2021/12/04 08:35:45;;;;;;;0.57;0.47;;;;;;;-145.69;100.00;71056.16;5113324;28;20202;-77
2021/12/04 08:38:13;;;;;;;0.70;0.70;;;;;;;-145.69;100.00;71056.16;5113591;28;20254;-76
2021/12/04 08:40:43;;;;;;;0.40;0.40;;;;;;;-145.69;100.00;71060.16;5113264;28;20237;-76
2021/12/04 08:43:11;;;;;;;0.60;0.50;;;;;;;-145.69;100.00;71026.31;5113511;28;20211;-77
2021/12/04 08:45:38;;;;;;;0.73;0.53;;;;;;;-145.69;100.00;71014.38;5113052;28;20675;-76
2021/12/04 08:48:05;;;;;;;0.40;0.40;;;;;;;-145.69;100.00;71010.41;5116004;28;20193;-77
2021/12/04 08:50:34;;;;;;;0.57;0.50;;;;;;;-145.69;100.00;71018.38;5117028;28;20193;-77
2021/12/04 08:53:06;;;;;;;0.63;0.60;;;;;;;-145.69;100.00;71016.38;5117309;28;20201;-76
2021/12/04 08:55:36;;;;;;;0.50;0.50;;;;;;;-145.69;100.00;71004.44;5117166;28;20552;-77
2021/12/04 08:58:05;;;;;;;1.10;0.80;;;;;;;-145.69;100.00;71000.47;5117002;28;20201;-77
2021/12/04 09:00:37;;;;;;;1.03;0.60;;;;;;;-145.69;100.00;70998.47;5117024;28;20618;-77
2021/12/04 09:03:05;;;;;;;0.70;0.60;;;;;;;-145.69;100.00;70996.47;5117104;28;20209;-76
2021/12/04 09:05:34;;;;;;;1.80;0.70;;;;;;;-145.69;100.00;70982.56;5117087;28;20201;-77
2021/12/04 09:08:00;;;;;;;0.30;0.30;;;;;;;-145.69;100.00;70962.66;5117098;28;20232;-77
2021/12/04 09:10:27;;;;;;;0.47;0.47;;;;;;;-145.69;100.00;70964.66;5116953;28;20548;-78
2021/12/04 09:12:55;;;;;;;0.57;0.50;;;;;;;-145.69;100.00;70962.66;5116699;28;20598;-77
2021/12/04 09:15:25;;;;;;;0.57;0.57;;;;;;;-145.69;100.00;70966.63;5128398;27;20613;-76
2021/12/04 09:17:52;;;;;;;1.00;0.80;;;;;;;-145.69;100.00;70950.72;5137355;27;20192;-78
2021/12/04 09:20:18;;;;;;;1.77;0.80;;;;;;;-145.69;100.00;70952.72;5136832;27;20228;-78
2021/12/04 09:22:45;;;;;;;0.40;0.40;;;;;;;-145.69;100.00;70940.78;5136944;27;20200;-77
2021/12/04 09:25:15;;;;;;;0.70;0.50;;;;;;;-145.69;100.00;70948.72;5137146;27;20200;-77
2021/12/04 09:27:56;;;;;;;1.90;0.50;;;;;;;-145.69;100.00;70932.81;5137050;27;20291;-77
2021/12/04 10:00:48;;;;;;;1.63;0.90;;;;;;;-145.69;100.00;70829.34;5115887;28;20227;-77
2021/12/04 10:12:17;;;;;;;1.63;1.10;;;;;;;-145.69;100.00;70817.41;5072881;28;20570;-76
2021/12/04 10:15:21;;;;;;;0.73;0.60;;;;;;;-145.69;100.00;70809.47;5104554;28;20296;-77
2021/12/04 10:20:58;;;;;;;0.80;0.43;;;;;;;-145.69;100.00;70805.47;5089917;27;20718;-77
2021/12/04 10:23:48;;;;;;;0.50;0.40;;;;;;;-145.69;100.00;70795.53;5115657;28;20225;-77
2021/12/04 10:34:55;;;;;;;1.27;0.87;;;;;;;-145.69;100.00;70757.72;5115174;28;20258;-76
2021/12/04 10:37:27;;;;;;;0.60;0.60;;;;;;;-145.69;100.00;70755.75;5115270;28;20247;-76
2021/12/04 10:39:57;;;;;;;0.30;0.30;;;;;;;-145.69;100.00;70751.75;5115234;28;20221;-76
2021/12/04 10:42:27;;;;;;;0.70;0.63;;;;;;;-145.69;100.00;70761.72;5115106;28;20204;-76
2021/12/04 10:44:56;;;;;;;0.63;0.60;;;;;;;-145.69;100.00;70753.75;5115046;28;20193;-76
2021/12/04 10:47:25;;;;;;;1.03;0.70;;;;;;;-145.69;100.00;70759.72;5115063;28;20262;-77
2021/12/04 10:50:01;;;;;;;1.17;0.80;;;;;;;-145.69;100.00;70749.78;5115241;28;20205;-76
2021/12/04 10:52:43;;;;;;;0.80;0.70;;;;;;;-145.69;100.00;70737.84;5115102;28;20197;-80
2021/12/04 10:55:16;;;;;;;1.87;0.70;;;;;;;-145.69;100.00;70741.81;5115262;28;20236;-78
2021/12/04 11:00:38;;;;;;;1.83;1.10;;;;;;;-145.69;100.00;70745.78;5096851;28;20298;-77
2021/12/04 11:03:22;;;;;;;0.77;0.70;;;;;;;-145.69;100.00;70745.78;5115064;28;20197;-77
2021/12/04 11:06:16;;;;;;;2.13;1.10;;;;;;;-145.69;100.00;70737.84;5114763;28;20213;-77
2021/12/04 11:22:38;;;;;;;0.67;0.67;;;;;;;-145.69;100.00;70658.25;5104466;27;20242;-76
2021/12/04 11:28:11;;;;;;;0.73;0.73;;;;;;;-145.69;100.00;70666.22;5092639;28;20197;-77
2021/12/04 11:36:24;;;;;;;0.50;0.50;;;;;;;-145.69;100.00;70658.25;5114266;28;20552;-76
2021/12/04 11:38:53;;;;;;;0.60;0.50;;;;;;;-145.69;100.00;70642.34;5114250;28;20198;-76
2021/12/04 11:41:32;;;;;;;2.67;0.43;;;;;;;-145.69;100.00;70644.31;5113841;28;20234;-76
2021/12/04 11:44:04;;;;;;;0.60;0.47;;;;;;;-145.69;100.00;70658.25;5114243;28;20219;-76
2021/12/04 11:46:44;;;;;;;1.00;0.70;;;;;;;-145.69;100.00;70642.34;5114155;28;20243;-76
2021/12/04 11:49:17;;;;;;;1.77;0.77;;;;;;;-145.69;100.00;70638.34;5124974;27;20207;-76
2021/12/04 11:51:55;;;;;;;0.40;0.40;;;;;;;-145.69;100.00;70642.34;5134541;27;20219;-76
2021/12/04 11:54:23;;;;;;;1.17;0.77;;;;;;;-145.69;100.00;70646.31;5134562;27;20651;-76
2021/12/04 11:57:01;;;;;;;0.60;0.60;;;;;;;-145.69;100.00;70646.31;5134451;27;20727;-76
2021/12/04 11:59:28;;;;;;;0.60;0.57;;;;;;;-145.69;100.00;70632.38;5134383;27;20200;-76
2021/12/04 12:01:57;;;;;;;2.43;0.63;;;;;;;-145.69;100.00;70622.44;5134175;27;20280;-76
2021/12/04 12:04:33;;;;;;;1.20;0.70;;;;;;;-145.69;100.00;70626.41;5134328;27;20207;-76
2021/12/04 12:07:11;;;;;;;1.03;0.70;;;;;;;-145.69;100.00;70616.47;5134393;27;20252;-76
2021/12/04 12:09:39;;;;;;;1.13;0.70;;;;;;;-145.69;100.00;70642.34;5134340;27;20200;-76
2021/12/04 12:12:11;;;;;;;1.10;0.73;;;;;;;-145.69;100.00;70634.38;5134159;27;20243;-76
2021/12/04 12:14:45;;;;;;;1.90;0.90;;;;;;;-145.69;100.00;70648.31;5133910;28;20200;-76
2021/12/04 12:17:12;;;;;;;0.70;0.57;;;;;;;-145.69;100.00;70642.34;5134186;27;20201;-76
2021/12/04 12:19:48;;;;;;;0.80;0.50;;;;;;;-145.69;100.00;70654.28;5134059;28;20552;-76
2021/12/04 12:22:28;;;;;;;1.50;0.67;;;;;;;-145.69;100.00;70646.31;5137206;27;20581;-77
2021/12/04 12:25:11;;;;;;;0.37;0.37;;;;;;;-145.69;100.00;70630.41;5137217;27;20433;-76
2021/12/04 12:27:54;;;;;;;0.73;0.73;;;;;;;-145.69;100.00;70658.25;5138752;27;20454;-76
2021/12/04 12:33:18;;;;;;;0.30;0.30;;;;;;;-145.69;100.00;70634.38;5138400;27;20719;-76
2021/12/04 12:36:03;;;;;;;0.40;0.40;;;;;;;-145.69;100.00;70634.38;5138147;27;20279;-76
2021/12/04 12:38:37;;;;;;;0.43;0.40;;;;;;;-145.69;100.00;70638.34;5138392;27;20200;-76
2021/12/04 12:41:08;;;;;;;0.30;0.30;;;;;;;-145.69;100.00;70654.28;5138261;27;20228;-76
2021/12/04 12:43:45;;;;;;;0.43;0.43;;;;;;;-145.69;100.00;70654.28;5138080;27;20200;-76
2021/12/04 12:46:13;;;;;;;0.50;0.50;;;;;;;-145.69;100.00;70646.31;5137791;27;20200;-76
2021/12/04 12:48:50;;;;;;;0.60;0.60;;;;;;;-145.69;100.00;70634.38;5137949;27;20201;-76
2021/12/04 12:51:25;;;;;;;2.23;0.70;;;;;;;-145.69;100.00;70642.34;5138046;27;20204;-76
2021/12/04 12:53:51;;;;;;;0.30;0.30;;;;;;;-145.69;100.00;70628.41;5138263;27;20291;-76
2021/12/04 12:56:21;;;;;;;0.53;0.53;;;;;;;-145.69;100.00;70634.38;5137518;27;20232;-76
2021/12/04 12:58:54;;;;;;;0.53;0.53;;;;;;;-145.69;100.00;70648.31;5137811;27;20253;-76
2021/12/04 13:12:46;;;;;;;0.70;0.70;;;;;;;-145.69;100.00;70682.13;5137454;27;20284;-75
2021/12/04 13:15:14;;;;;;;0.53;0.40;;;;;;;-145.69;100.00;70674.16;5137112;27;20201;-75
2021/12/04 13:17:41;;;;;;;2.67;1.07;;;;;;;-145.69;100.00;70682.13;5137157;27;20197;-75
2021/12/04 13:20:10;;;;;;;0.50;0.50;;;;;;;-145.69;100.00;70676.16;5137033;27;20232;-75
2021/12/04 13:22:37;;;;;;;1.67;0.60;;;;;;;-145.69;100.00;70666.22;5137168;27;20668;-75
2021/12/04 13:25:09;;;;;;;1.73;1.53;;;;;;;-145.69;100.00;70670.19;5137122;27;20200;-75
2021/12/04 13:30:04;;;;;;;0.40;0.40;;;;;;;-145.69;100.00;70668.19;5137179;27;20196;-75
2021/12/04 13:32:34;;;;;;;2.27;1.33;;;;;;;-145.69;100.00;70672.19;5136357;27;20200;-76
2021/12/04 13:35:11;;;;;;;0.40;0.40;;;;;;;-145.69;100.00;70662.22;5137570;27;20604;-76
2021/12/04 13:37:38;;;;;;;0.87;0.70;;;;;;;-145.69;100.00;70672.19;5136888;27;20224;-77
2021/12/04 13:40:07;;;;;;;0.50;0.50;;;;;;;-145.69;100.00;70670.19;5136540;27;20205;-77
2021/12/04 13:42:35;;;;;;;0.60;0.60;;;;;;;-145.69;100.00;70674.16;5136597;27;20665;-77